x

North Hecate Strait (46183) Wave Buoy

6:00am - Fri 19th Sep 2014 All times are PDT. -7 hours from GMT.

  • Sig Wave height 3.3ft
  • Peak Period 7s
  • Wind
    13mph, 16mph gusts
  • Sea Temp 56°f
  • Air Temp 58°f
  • Sea Pressure 1009.2mb
  • North Hecate Strait
  • North Hecate Strait

More Historic Weather Station data

Upgrade to MSW Pro to gain access to the past 30 days of data for over 8000 Wavebouys and Weather Stations around the globe.

Join Pro

Comparision Forecast

View Surf forecast
   
Fri 09/19 6:00am 3.5ft 7s 13 16 mph 1009.2mb 56f 58f
5:00am 3.5ft 7s 16 18 mph 1008.6mb 56f 57f
4:00am 4ft 7s 16 18 mph 1007.7mb 56f 57f
3:00am 4ft 7s 16 18 mph 1007.2mb 55f 57f
2:00am 4ft 7s 11 16 mph 1006.6mb 54f 57f
1:00am 4.5ft 7s 16 18 mph 1005.2mb 54f 57f
12:00am 4.5ft 7s 13 18 mph 1004.1mb 53f 57f
Thu 09/18 11:00pm 4.5ft 7s 16 18 mph 1003.2mb 53f 57f
10:00pm 4.5ft 7s 20 22 mph 1002.2mb 53f 58f
9:00pm 4.5ft 7s 16 18 mph 1001.2mb 53f 58f
8:00pm 4.5ft 7s 7 9 mph 1000.3mb 54f 56f
6:00pm 5ft 6s 13 18 mph 997.7mb 54f 58f
5:00pm 6.5ft 6s 18 20 mph 996.8mb 54f 56f
4:00pm 7ft 7s 20 29 mph 997.2mb 54f 55f
3:00pm 6.5ft 6s 27 34 mph 996.4mb 54f 55f
2:00pm 6ft 6s 29 36 mph 996.9mb 54f 55f
1:00pm 5.5ft 6s 29 36 mph 997.3mb 54f 55f
12:00pm 4.5ft 5s 31 36 mph 997.7mb 55f 56f
11:00am 4ft 4s 29 36 mph 998mb 56f 55f
10:00am 3ft 4s 25 29 mph 998.8mb 56f 55f
9:00am 2.5ft 4s 22 27 mph 999mb 56f 56f
8:00am 2ft 4s 20 25 mph 999.5mb 56f 55f
7:00am 1.6ft 4s 13 16 mph 999.7mb 56f 55f
6:00am 1.6ft 4s 9 11 mph 999.8mb 56f 55f
5:00am 1.3ft 4s 11 13 mph 1000.8mb 56f 56f
4:00am 1.3ft 3s 11 13 mph 1001.2mb 56f 55f
3:00am 1.6ft 3s 11 13 mph 1001.8mb 56f 55f
2:00am 1.3ft 3s 13 16 mph 1002.4mb 56f 55f
1:00am 1ft 11s 13 16 mph 1003mb 56f 55f
12:00am 1ft 13s 11 13 mph 1003.5mb 56f 55f
Wed 09/17 11:00pm 1ft 10s 9 11 mph 1004mb 55f 54f
10:00pm 1ft 11s 9 11 mph 1004.5mb 55f 54f
9:00pm 1.3ft 10s 9
mph
1005.2mb 55f 53f
8:00pm 1.3ft 12s 11 13 mph 1005.4mb 55f 54f
7:00pm 1.3ft 11s 13 18 mph 1005.6mb 55f 54f
6:00pm 1ft 11s 16 20 mph 1005.8mb 55f 54f
5:00pm 0.7ft 11s 7 9 mph 1006.7mb 55f 53f
4:00pm 1ft 13s 9 11 mph 1007.2mb 55f 53f
3:00pm 1ft 12s 4 7 mph 1007.6mb 55f 53f
2:00pm 1ft 12s 4 7 mph 1008.1mb 55f 53f
1:00pm 1ft 11s 7
mph
1008.4mb 55f 53f
12:00pm 1ft 11s 7 9 mph 1008.7mb 55f 53f
11:00am 1ft 11s 9 11 mph 1008.3mb 55f 53f
10:00am 1.3ft 11s 9 13 mph 1008.6mb 55f 52f
9:00am 1.3ft 12s 13 16 mph 1008.4mb 55f 53f
8:00am 2ft 3s 13 16 mph 1008.8mb 55f 52f
7:00am 1.6ft 13s 13 18 mph 1008.9mb 55f 51f
6:00am 1.3ft 12s 13 16 mph 1008.9mb 55f 51f
5:00am 1ft 12s 11 13 mph 1009.3mb 55f 51f
4:00am 1ft 13s 9 13 mph 1009.7mb 55f 51f
3:00am 1ft 12s 7 9 mph 1010.1mb 55f 51f
2:00am 0.7ft 12s 4
mph
1010.1mb 55f 51f
1:00am 1ft 13s 4
mph
1010.1mb 55f 52f
12:00am 1ft 13s 4
mph
1010.2mb 55f 52f
Tue 09/16 11:00pm 1ft 11s 7 9 mph 1010.1mb 55f 52f
10:00pm 1.3ft 12s 9 11 mph 1010.2mb 55f 52f
9:00pm 1.3ft 13s 11 13 mph 1010.3mb 55f 52f
8:00pm 1.3ft 13s 13 16 mph 1010.3mb 55f 52f
7:00pm 1.3ft 13s 11 13 mph 1010.5mb 55f 52f
6:00pm 1.3ft 12s 11 13 mph 1010.8mb 55f 52f
5:00pm 1.3ft 14s 9 11 mph 1011.4mb 55f 52f
4:00pm 1.3ft 13s 11 13 mph 1011.4mb 55f 52f
3:00pm 1.3ft 14s 9 13 mph 1011.8mb 55f 52f
2:00pm 1.3ft 14s 9 11 mph 1012.2mb 54f 52f
1:00pm 1.3ft 14s 11 13 mph 1012.1mb 54f 52f
12:00pm 1.3ft 14s 9 11 mph 1012.1mb 54f 53f
11:00am 1.3ft 14s 9 13 mph 1012mb 55f 53f
10:00am 1.3ft 14s 11 13 mph 1011.5mb 55f 54f
9:00am 1.3ft 14s 9 11 mph 1011.4mb 55f 55f
8:00am 1.3ft 14s 11 13 mph 1011.1mb 55f 55f
7:00am 1.6ft 13s 9 13 mph 1011.1mb 55f 55f
6:00am 1.3ft 12s 9
mph
1011.1mb 55f 55f
5:00am 1.6ft 14s 4 7 mph 1011.3mb 55f 54f
4:00am 1.3ft 14s 2 4 mph 1011.7mb 55f 52f
3:00am 1.3ft 14s 4 7 mph 1011.8mb 55f 54f
2:00am 1.3ft 15s 7
mph
1012.1mb 55f 55f
1:00am 1ft 14s 7
mph
1012.1mb 55f 55f
12:00am 1ft 14s 9
mph
1012mb 55f 55f
Mon 09/15 11:00pm 1ft 15s 11 13 mph 1011.7mb 55f 53f
10:00pm 1ft 15s 11 16 mph 1011.8mb 55f 54f
9:00pm 1ft 14s 9 11 mph 1011.7mb 55f 54f
8:00pm 1.3ft 13s 9 11 mph 1011.7mb 55f 53f
7:00pm 1.3ft 14s 11 13 mph 1011.7mb 55f 54f
6:00pm 1.3ft 4s 11 13 mph 1012mb 55f 54f
5:00pm 1.3ft 3s 13 16 mph 1012.2mb 55f 54f
4:00pm 1.3ft 3s 13
mph
1012.7mb 55f 54f
3:00pm 1.3ft 3s 11 13 mph 1013.1mb 55f 54f